sensor_id;sensor_type;location;lat;lon;timestamp;P1;P2;P0
73246;PMS5003;61460;41.158;-73.238;2023-04-10T00:02:22;3;2;
73246;PMS5003;61460;41.158;-73.238;2023-04-10T00:04:53;3;3;
73246;PMS5003;61460;41.158;-73.238;2023-04-10T00:07:24;2;2;
73246;PMS5003;61460;41.158;-73.238;2023-04-10T00:09:54;3;3;
73246;PMS5003;61460;41.158;-73.238;2023-04-10T00:12:25;2;2;
73246;PMS5003;61460;41.158;-73.238;2023-04-10T00:14:55;2;1;
73246;PMS5003;61460;41.158;-73.238;2023-04-10T00:17:26;2;1;
73246;PMS5003;61460;41.158;-73.238;2023-04-10T00:19:57;3;2;
73246;PMS5003;61460;41.158;-73.238;2023-04-10T00:22:28;3;2;
73246;PMS5003;61460;41.158;-73.238;2023-04-10T00:24:58;4;4;
73246;PMS5003;61460;41.158;-73.238;2023-04-10T00:27:29;3;3;
73246;PMS5003;61460;41.158;-73.238;2023-04-10T00:29:59;3;3;
73246;PMS5003;61460;41.158;-73.238;2023-04-10T00:32:30;3;3;
73246;PMS5003;61460;41.158;-73.238;2023-04-10T00:35:01;4;4;
73246;PMS5003;61460;41.158;-73.238;2023-04-10T00:37:31;3;3;
73246;PMS5003;61460;41.158;-73.238;2023-04-10T00:40:02;3;3;
73246;PMS5003;61460;41.158;-73.238;2023-04-10T00:42:33;2;2;
73246;PMS5003;61460;41.158;-73.238;2023-04-10T00:45:04;3;3;
73246;PMS5003;61460;41.158;-73.238;2023-04-10T00:47:34;3;3;
73246;PMS5003;61460;41.158;-73.238;2023-04-10T00:50:05;2;2;
73246;PMS5003;61460;41.158;-73.238;2023-04-10T00:52:35;4;4;
73246;PMS5003;61460;41.158;-73.238;2023-04-10T00:55:06;4;3;
73246;PMS5003;61460;41.158;-73.238;2023-04-10T00:57:37;3;2;
73246;PMS5003;61460;41.158;-73.238;2023-04-10T01:00:08;3;2;
73246;PMS5003;61460;41.158;-73.238;2023-04-10T01:02:38;3;3;
73246;PMS5003;61460;41.158;-73.238;2023-04-10T01:05:09;3;3;
73246;PMS5003;61460;41.158;-73.238;2023-04-10T01:07:43;3;3;
73246;PMS5003;61460;41.158;-73.238;2023-04-10T01:10:12;4;4;
73246;PMS5003;61460;41.158;-73.238;2023-04-10T01:12:44;3;3;
73246;PMS5003;61460;41.158;-73.238;2023-04-10T01:15:14;4;4;
73246;PMS5003;61460;41.158;-73.238;2023-04-10T01:17:44;2;2;
73246;PMS5003;61460;41.158;-73.238;2023-04-10T01:20:13;5;4;
73246;PMS5003;61460;41.158;-73.238;2023-04-10T01:22:51;3;3;
73246;PMS5003;61460;41.158;-73.238;2023-04-10T01:25:22;3;3;
73246;PMS5003;61460;41.158;-73.238;2023-04-10T01:27:46;3;3;
73246;PMS5003;61460;41.158;-73.238;2023-04-10T01:30:16;3;3;
73246;PMS5003;61460;41.158;-73.238;2023-04-10T01:32:46;3;3;
73246;PMS5003;61460;41.158;-73.238;2023-04-10T01:35:16;4;2;
73246;PMS5003;61460;41.158;-73.238;2023-04-10T01:37:47;3;3;
73246;PMS5003;61460;41.158;-73.238;2023-04-10T01:40:18;5;3;
73246;PMS5003;61460;41.158;-73.238;2023-04-10T01:42:49;3;3;
73246;PMS5003;61460;41.158;-73.238;2023-04-10T01:45:19;2;2;
73246;PMS5003;61460;41.158;-73.238;2023-04-10T01:47:49;4;4;
73246;PMS5003;61460;41.158;-73.238;2023-04-10T01:50:20;4;4;
73246;PMS5003;61460;41.158;-73.238;2023-04-10T01:52:50;3;3;
73246;PMS5003;61460;41.158;-73.238;2023-04-10T01:55:21;3;3;
73246;PMS5003;61460;41.158;-73.238;2023-04-10T01:57:51;3;3;
73246;PMS5003;61460;41.158;-73.238;2023-04-10T02:00:22;3;2;
73246;PMS5003;61460;41.158;-73.238;2023-04-10T02:02:53;2;2;
73246;PMS5003;61460;41.158;-73.238;2023-04-10T02:05:23;3;2;
73246;PMS5003;61460;41.158;-73.238;2023-04-10T02:07:56;3;3;
73246;PMS5003;61460;41.158;-73.238;2023-04-10T02:10:27;3;3;
73246;PMS5003;61460;41.158;-73.238;2023-04-10T02:12:57;3;3;
73246;PMS5003;61460;41.158;-73.238;2023-04-10T02:15:26;1;1;
73246;PMS5003;61460;41.158;-73.238;2023-04-10T02:17:57;3;3;
73246;PMS5003;61460;41.158;-73.238;2023-04-10T02:20:27;5;4;
73246;PMS5003;61460;41.158;-73.238;2023-04-10T02:22:58;4;4;
73246;PMS5003;61460;41.158;-73.238;2023-04-10T02:25:30;3;3;
73246;PMS5003;61460;41.158;-73.238;2023-04-10T02:28:02;3;3;
73246;PMS5003;61460;41.158;-73.238;2023-04-10T02:30:31;3;3;
73246;PMS5003;61460;41.158;-73.238;2023-04-10T02:33:01;4;3;
73246;PMS5003;61460;41.158;-73.238;2023-04-10T02:35:31;1;1;
73246;PMS5003;61460;41.158;-73.238;2023-04-10T02:38:02;3;2;
73246;PMS5003;61460;41.158;-73.238;2023-04-10T02:40:33;2;2;
73246;PMS5003;61460;41.158;-73.238;2023-04-10T02:43:03;2;2;
73246;PMS5003;61460;41.158;-73.238;2023-04-10T02:45:34;3;2;
73246;PMS5003;61460;41.158;-73.238;2023-04-10T02:48:04;3;3;
73246;PMS5003;61460;41.158;-73.238;2023-04-10T02:50:35;3;2;
73246;PMS5003;61460;41.158;-73.238;2023-04-10T02:53:06;2;2;
73246;PMS5003;61460;41.158;-73.238;2023-04-10T02:55:36;1;1;
73246;PMS5003;61460;41.158;-73.238;2023-04-10T02:58:08;1;1;
73246;PMS5003;61460;41.158;-73.238;2023-04-10T03:00:38;3;3;
73246;PMS5003;61460;41.158;-73.238;2023-04-10T03:03:08;2;2;
73246;PMS5003;61460;41.158;-73.238;2023-04-10T03:05:39;2;2;
73246;PMS5003;61460;41.158;-73.238;2023-04-10T03:08:09;1;1;
73246;PMS5003;61460;41.158;-73.238;2023-04-10T03:10:41;3;3;
73246;PMS5003;61460;41.158;-73.238;2023-04-10T03:13:11;2;2;
73246;PMS5003;61460;41.158;-73.238;2023-04-10T03:15:41;2;2;
73246;PMS5003;61460;41.158;-73.238;2023-04-10T03:18:12;3;3;
73246;PMS5003;61460;41.158;-73.238;2023-04-10T03:20:44;2;1;
73246;PMS5003;61460;41.158;-73.238;2023-04-10T03:23:13;0;0;
73246;PMS5003;61460;41.158;-73.238;2023-04-10T03:25:44;3;3;
73246;PMS5003;61460;41.158;-73.238;2023-04-10T03:28:15;2;2;
73246;PMS5003;61460;41.158;-73.238;2023-04-10T03:30:45;2;2;
73246;PMS5003;61460;41.158;-73.238;2023-04-10T03:33:16;2;1;
73246;PMS5003;61460;41.158;-73.238;2023-04-10T03:35:47;2;2;
73246;PMS5003;61460;41.158;-73.238;2023-04-10T03:38:17;2;2;
73246;PMS5003;61460;41.158;-73.238;2023-04-10T03:40:48;1;1;
73246;PMS5003;61460;41.158;-73.238;2023-04-10T03:43:19;3;2;
73246;PMS5003;61460;41.158;-73.238;2023-04-10T03:45:49;1;1;
73246;PMS5003;61460;41.158;-73.238;2023-04-10T03:48:20;2;2;
73246;PMS5003;61460;41.158;-73.238;2023-04-10T03:50:50;2;1;
73246;PMS5003;61460;41.158;-73.238;2023-04-10T03:53:21;2;2;
73246;PMS5003;61460;41.158;-73.238;2023-04-10T03:55:52;3;2;
73246;PMS5003;61460;41.158;-73.238;2023-04-10T03:58:22;2;2;
73246;PMS5003;61460;41.158;-73.238;2023-04-10T04:00:53;2;2;
73246;PMS5003;61460;41.158;-73.238;2023-04-10T04:03:24;2;2;
73246;PMS5003;61460;41.158;-73.238;2023-04-10T04:05:54;2;1;
73246;PMS5003;61460;41.158;-73.238;2023-04-10T04:08:25;3;3;
73246;PMS5003;61460;41.158;-73.238;2023-04-10T04:10:56;2;1;
73246;PMS5003;61460;41.158;-73.238;2023-04-10T04:13:26;2;2;
73246;PMS5003;61460;41.158;-73.238;2023-04-10T04:15:57;1;1;
73246;PMS5003;61460;41.158;-73.238;2023-04-10T04:18:27;2;1;
73246;PMS5003;61460;41.158;-73.238;2023-04-10T04:20:59;2;1;
73246;PMS5003;61460;41.158;-73.238;2023-04-10T04:23:29;1;1;
73246;PMS5003;61460;41.158;-73.238;2023-04-10T04:25:59;1;1;
73246;PMS5003;61460;41.158;-73.238;2023-04-10T04:28:30;2;2;
73246;PMS5003;61460;41.158;-73.238;2023-04-10T04:31:01;3;2;
73246;PMS5003;61460;41.158;-73.238;2023-04-10T04:33:31;1;1;
73246;PMS5003;61460;41.158;-73.238;2023-04-10T04:36:02;1;1;
73246;PMS5003;61460;41.158;-73.238;2023-04-10T04:38:32;2;1;
73246;PMS5003;61460;41.158;-73.238;2023-04-10T04:41:03;1;1;
73246;PMS5003;61460;41.158;-73.238;2023-04-10T04:43:34;2;2;
73246;PMS5003;61460;41.158;-73.238;2023-04-10T04:46:05;0;0;
73246;PMS5003;61460;41.158;-73.238;2023-04-10T04:48:35;1;1;
73246;PMS5003;61460;41.158;-73.238;2023-04-10T04:51:06;3;2;
73246;PMS5003;61460;41.158;-73.238;2023-04-10T04:53:36;1;1;
73246;PMS5003;61460;41.158;-73.238;2023-04-10T04:56:07;1;1;
73246;PMS5003;61460;41.158;-73.238;2023-04-10T04:58:38;1;1;
73246;PMS5003;61460;41.158;-73.238;2023-04-10T05:01:08;1;1;
73246;PMS5003;61460;41.158;-73.238;2023-04-10T05:03:39;1;1;
73246;PMS5003;61460;41.158;-73.238;2023-04-10T05:06:10;1;1;
73246;PMS5003;61460;41.158;-73.238;2023-04-10T05:08:40;0;0;
73246;PMS5003;61460;41.158;-73.238;2023-04-10T05:11:11;2;1;
73246;PMS5003;61460;41.158;-73.238;2023-04-10T05:13:41;1;1;
73246;PMS5003;61460;41.158;-73.238;2023-04-10T05:16:12;1;1;
73246;PMS5003;61460;41.158;-73.238;2023-04-10T05:18:43;0;0;
73246;PMS5003;61460;41.158;-73.238;2023-04-10T05:21:13;1;1;
73246;PMS5003;61460;41.158;-73.238;2023-04-10T05:23:44;1;1;
73246;PMS5003;61460;41.158;-73.238;2023-04-10T05:26:15;0;0;
73246;PMS5003;61460;41.158;-73.238;2023-04-10T05:28:45;2;1;
73246;PMS5003;61460;41.158;-73.238;2023-04-10T05:31:16;1;1;
73246;PMS5003;61460;41.158;-73.238;2023-04-10T05:33:47;1;1;
73246;PMS5003;61460;41.158;-73.238;2023-04-10T05:36:17;2;2;
73246;PMS5003;61460;41.158;-73.238;2023-04-10T05:38:48;0;0;
73246;PMS5003;61460;41.158;-73.238;2023-04-10T05:41:19;0;0;
73246;PMS5003;61460;41.158;-73.238;2023-04-10T05:43:49;1;1;
73246;PMS5003;61460;41.158;-73.238;2023-04-10T05:46:20;1;1;
73246;PMS5003;61460;41.158;-73.238;2023-04-10T05:48:51;0;0;
73246;PMS5003;61460;41.158;-73.238;2023-04-10T05:51:21;0;0;
73246;PMS5003;61460;41.158;-73.238;2023-04-10T05:53:52;1;1;
73246;PMS5003;61460;41.158;-73.238;2023-04-10T05:56:22;1;1;
73246;PMS5003;61460;41.158;-73.238;2023-04-10T05:58:53;1;1;
73246;PMS5003;61460;41.158;-73.238;2023-04-10T06:01:24;1;1;
73246;PMS5003;61460;41.158;-73.238;2023-04-10T06:03:54;1;1;
73246;PMS5003;61460;41.158;-73.238;2023-04-10T06:06:25;1;1;
73246;PMS5003;61460;41.158;-73.238;2023-04-10T06:08:55;0;0;
73246;PMS5003;61460;41.158;-73.238;2023-04-10T06:11:26;1;1;
73246;PMS5003;61460;41.158;-73.238;2023-04-10T06:13:57;1;1;
73246;PMS5003;61460;41.158;-73.238;2023-04-10T06:16:27;1;1;
73246;PMS5003;61460;41.158;-73.238;2023-04-10T06:18:58;0;0;
73246;PMS5003;61460;41.158;-73.238;2023-04-10T06:21:29;0;0;
73246;PMS5003;61460;41.158;-73.238;2023-04-10T06:23:59;1;1;
73246;PMS5003;61460;41.158;-73.238;2023-04-10T06:26:30;1;1;
73246;PMS5003;61460;41.158;-73.238;2023-04-10T06:29:01;0;0;
73246;PMS5003;61460;41.158;-73.238;2023-04-10T06:31:31;1;1;
73246;PMS5003;61460;41.158;-73.238;2023-04-10T06:34:02;0;0;
73246;PMS5003;61460;41.158;-73.238;2023-04-10T06:36:32;1;0;
73246;PMS5003;61460;41.158;-73.238;2023-04-10T06:39:03;0;0;
73246;PMS5003;61460;41.158;-73.238;2023-04-10T06:41:34;0;0;
73246;PMS5003;61460;41.158;-73.238;2023-04-10T06:44:04;1;1;
73246;PMS5003;61460;41.158;-73.238;2023-04-10T06:46:35;0;0;
73246;PMS5003;61460;41.158;-73.238;2023-04-10T06:49:06;1;1;
73246;PMS5003;61460;41.158;-73.238;2023-04-10T06:51:36;1;1;
73246;PMS5003;61460;41.158;-73.238;2023-04-10T06:54:07;0;0;
73246;PMS5003;61460;41.158;-73.238;2023-04-10T06:56:38;1;1;
73246;PMS5003;61460;41.158;-73.238;2023-04-10T06:59:08;0;0;
73246;PMS5003;61460;41.158;-73.238;2023-04-10T07:01:39;0;0;
73246;PMS5003;61460;41.158;-73.238;2023-04-10T07:04:10;1;1;
73246;PMS5003;61460;41.158;-73.238;2023-04-10T07:06:40;1;0;
73246;PMS5003;61460;41.158;-73.238;2023-04-10T07:09:11;0;0;
73246;PMS5003;61460;41.158;-73.238;2023-04-10T07:11:42;0;0;
73246;PMS5003;61460;41.158;-73.238;2023-04-10T07:14:12;0;0;
73246;PMS5003;61460;41.158;-73.238;2023-04-10T07:16:43;1;1;
73246;PMS5003;61460;41.158;-73.238;2023-04-10T07:19:14;1;1;
73246;PMS5003;61460;41.158;-73.238;2023-04-10T07:21:44;0;0;
73246;PMS5003;61460;41.158;-73.238;2023-04-10T07:24:15;1;1;
73246;PMS5003;61460;41.158;-73.238;2023-04-10T07:26:46;1;1;
73246;PMS5003;61460;41.158;-73.238;2023-04-10T07:29:16;1;1;
73246;PMS5003;61460;41.158;-73.238;2023-04-10T07:31:47;0;0;
73246;PMS5003;61460;41.158;-73.238;2023-04-10T07:34:18;0;0;
73246;PMS5003;61460;41.158;-73.238;2023-04-10T07:36:48;1;1;
73246;PMS5003;61460;41.158;-73.238;2023-04-10T07:39:19;0;0;
73246;PMS5003;61460;41.158;-73.238;2023-04-10T07:41:50;0;0;
73246;PMS5003;61460;41.158;-73.238;2023-04-10T07:44:20;1;1;
73246;PMS5003;61460;41.158;-73.238;2023-04-10T07:46:51;1;1;
73246;PMS5003;61460;41.158;-73.238;2023-04-10T07:49:21;0;0;
73246;PMS5003;61460;41.158;-73.238;2023-04-10T07:51:52;1;1;
73246;PMS5003;61460;41.158;-73.238;2023-04-10T07:54:23;1;1;
73246;PMS5003;61460;41.158;-73.238;2023-04-10T07:56:53;0;0;
73246;PMS5003;61460;41.158;-73.238;2023-04-10T07:59:26;0;0;
73246;PMS5003;61460;41.158;-73.238;2023-04-10T08:01:54;0;0;
73246;PMS5003;61460;41.158;-73.238;2023-04-10T08:04:25;1;1;
73246;PMS5003;61460;41.158;-73.238;2023-04-10T08:06:56;0;0;
73246;PMS5003;61460;41.158;-73.238;2023-04-10T08:09:26;2;1;
73246;PMS5003;61460;41.158;-73.238;2023-04-10T08:11:57;0;0;
73246;PMS5003;61460;41.158;-73.238;2023-04-10T08:14:28;0;0;
73246;PMS5003;61460;41.158;-73.238;2023-04-10T08:16:58;0;0;
73246;PMS5003;61460;41.158;-73.238;2023-04-10T08:19:29;0;0;
73246;PMS5003;61460;41.158;-73.238;2023-04-10T08:22:00;0;0;
73246;PMS5003;61460;41.158;-73.238;2023-04-10T08:24:30;1;1;
73246;PMS5003;61460;41.158;-73.238;2023-04-10T08:27:01;1;0;
73246;PMS5003;61460;41.158;-73.238;2023-04-10T08:29:32;1;0;
73246;PMS5003;61460;41.158;-73.238;2023-04-10T08:32:02;0;0;
73246;PMS5003;61460;41.158;-73.238;2023-04-10T08:34:33;1;1;
73246;PMS5003;61460;41.158;-73.238;2023-04-10T08:37:04;0;0;
73246;PMS5003;61460;41.158;-73.238;2023-04-10T08:39:34;1;1;
73246;PMS5003;61460;41.158;-73.238;2023-04-10T08:42:05;0;0;
73246;PMS5003;61460;41.158;-73.238;2023-04-10T08:44:36;0;0;
73246;PMS5003;61460;41.158;-73.238;2023-04-10T08:47:06;1;1;
73246;PMS5003;61460;41.158;-73.238;2023-04-10T08:49:39;1;1;
73246;PMS5003;61460;41.158;-73.238;2023-04-10T08:52:08;0;0;
73246;PMS5003;61460;41.158;-73.238;2023-04-10T08:54:38;1;0;
73246;PMS5003;61460;41.158;-73.238;2023-04-10T08:57:09;1;1;
73246;PMS5003;61460;41.158;-73.238;2023-04-10T08:59:39;0;0;
73246;PMS5003;61460;41.158;-73.238;2023-04-10T09:02:10;0;0;
73246;PMS5003;61460;41.158;-73.238;2023-04-10T09:04:42;0;0;
73246;PMS5003;61460;41.158;-73.238;2023-04-10T09:07:11;0;0;
73246;PMS5003;61460;41.158;-73.238;2023-04-10T09:09:42;1;1;
73246;PMS5003;61460;41.158;-73.238;2023-04-10T09:12:13;0;0;
73246;PMS5003;61460;41.158;-73.238;2023-04-10T09:14:43;0;0;
73246;PMS5003;61460;41.158;-73.238;2023-04-10T09:17:15;0;0;
73246;PMS5003;61460;41.158;-73.238;2023-04-10T09:19:45;0;0;
73246;PMS5003;61460;41.158;-73.238;2023-04-10T09:22:15;1;1;
73246;PMS5003;61460;41.158;-73.238;2023-04-10T09:24:46;1;1;
73246;PMS5003;61460;41.158;-73.238;2023-04-10T09:29:47;1;1;
73246;PMS5003;61460;41.158;-73.238;2023-04-10T09:34:52;0;0;
73246;PMS5003;61460;41.158;-73.238;2023-04-10T09:37:19;1;1;
73246;PMS5003;61460;41.158;-73.238;2023-04-10T09:39:50;0;0;
73246;PMS5003;61460;41.158;-73.238;2023-04-10T09:44:51;0;0;
73246;PMS5003;61460;41.158;-73.238;2023-04-10T09:47:22;0;0;
73246;PMS5003;61460;41.158;-73.238;2023-04-10T09:49:53;1;0;
73246;PMS5003;61460;41.158;-73.238;2023-04-10T09:52:24;1;1;
73246;PMS5003;61460;41.158;-73.238;2023-04-10T09:54:55;0;0;
73246;PMS5003;61460;41.158;-73.238;2023-04-10T09:57:25;1;1;
73246;PMS5003;61460;41.158;-73.238;2023-04-10T09:59:56;1;0;
73246;PMS5003;61460;41.158;-73.238;2023-04-10T10:02:27;0;0;
73246;PMS5003;61460;41.158;-73.238;2023-04-10T10:04:57;1;1;
73246;PMS5003;61460;41.158;-73.238;2023-04-10T10:07:27;1;1;
73246;PMS5003;61460;41.158;-73.238;2023-04-10T10:09:58;0;0;
73246;PMS5003;61460;41.158;-73.238;2023-04-10T10:12:31;0;0;
73246;PMS5003;61460;41.158;-73.238;2023-04-10T10:15:00;0;0;
73246;PMS5003;61460;41.158;-73.238;2023-04-10T10:17:31;0;0;
73246;PMS5003;61460;41.158;-73.238;2023-04-10T10:20:01;0;0;
73246;PMS5003;61460;41.158;-73.238;2023-04-10T10:22:31;1;1;
73246;PMS5003;61460;41.158;-73.238;2023-04-10T10:25:02;0;0;
73246;PMS5003;61460;41.158;-73.238;2023-04-10T10:27:35;0;0;
73246;PMS5003;61460;41.158;-73.238;2023-04-10T10:30:03;1;1;
73246;PMS5003;61460;41.158;-73.238;2023-04-10T10:32:34;1;0;
73246;PMS5003;61460;41.158;-73.238;2023-04-10T10:35:05;0;0;
73246;PMS5003;61460;41.158;-73.238;2023-04-10T10:37:35;1;1;
73246;PMS5003;61460;41.158;-73.238;2023-04-10T10:40:08;1;1;
73246;PMS5003;61460;41.158;-73.238;2023-04-10T10:42:39;0;0;
73246;PMS5003;61460;41.158;-73.238;2023-04-10T10:45:08;0;0;
73246;PMS5003;61460;41.158;-73.238;2023-04-10T10:47:39;4;1;
73246;PMS5003;61460;41.158;-73.238;2023-04-10T10:50:09;0;0;
73246;PMS5003;61460;41.158;-73.238;2023-04-10T10:52:41;0;0;
73246;PMS5003;61460;41.158;-73.238;2023-04-10T11:00:12;1;1;
73246;PMS5003;61460;41.158;-73.238;2023-04-10T11:02:42;0;0;
73246;PMS5003;61460;41.158;-73.238;2023-04-10T11:10:14;0;0;
73246;PMS5003;61460;41.158;-73.238;2023-04-10T11:15:15;0;0;
73246;PMS5003;61460;41.158;-73.238;2023-04-10T11:17:47;1;1;
73246;PMS5003;61460;41.158;-73.238;2023-04-10T11:20:17;1;1;
73246;PMS5003;61460;41.158;-73.238;2023-04-10T11:25:18;1;1;
73246;PMS5003;61460;41.158;-73.238;2023-04-10T11:27:48;0;0;
73246;PMS5003;61460;41.158;-73.238;2023-04-10T11:32:50;0;0;
73246;PMS5003;61460;41.158;-73.238;2023-04-10T11:35:21;0;0;
73246;PMS5003;61460;41.158;-73.238;2023-04-10T11:37:51;1;1;
73246;PMS5003;61460;41.158;-73.238;2023-04-10T11:40:22;1;1;
73246;PMS5003;61460;41.158;-73.238;2023-04-10T11:42:52;2;2;
73246;PMS5003;61460;41.158;-73.238;2023-04-10T11:45:25;2;2;
73246;PMS5003;61460;41.158;-73.238;2023-04-10T11:47:54;6;6;
73246;PMS5003;61460;41.158;-73.238;2023-04-10T11:50:27;19;19;
73246;PMS5003;61460;41.158;-73.238;2023-04-10T11:52:55;51;43;
73246;PMS5003;61460;41.158;-73.238;2023-04-10T11:57:56;183;169;
73246;PMS5003;61460;41.158;-73.238;2023-04-10T12:00:26;232;208;
73246;PMS5003;61460;41.158;-73.238;2023-04-10T12:02:56;215;190;
73246;PMS5003;61460;41.158;-73.238;2023-04-10T12:05:26;206;198;
73246;PMS5003;61460;41.158;-73.238;2023-04-10T12:07:57;221;194;
73246;PMS5003;61460;41.158;-73.238;2023-04-10T12:10:27;226;207;
73246;PMS5003;61460;41.158;-73.238;2023-04-10T12:12:58;216;203;
73246;PMS5003;61460;41.158;-73.238;2023-04-10T12:15:29;222;207;
73246;PMS5003;61460;41.158;-73.238;2023-04-10T12:17:59;240;230;
73246;PMS5003;61460;41.158;-73.238;2023-04-10T12:20:29;251;232;
73246;PMS5003;61460;41.158;-73.238;2023-04-10T12:23:00;304;287;
73246;PMS5003;61460;41.158;-73.238;2023-04-10T12:25:30;284;261;
73246;PMS5003;61460;41.158;-73.238;2023-04-10T12:28:01;284;268;
73246;PMS5003;61460;41.158;-73.238;2023-04-10T12:30:31;275;264;
73246;PMS5003;61460;41.158;-73.238;2023-04-10T12:33:01;288;265;
73246;PMS5003;61460;41.158;-73.238;2023-04-10T12:38:03;285;268;
73246;PMS5003;61460;41.158;-73.238;2023-04-10T12:40:33;274;260;
73246;PMS5003;61460;41.158;-73.238;2023-04-10T12:43:03;286;269;
73246;PMS5003;61460;41.158;-73.238;2023-04-10T12:48:04;286;262;
73246;PMS5003;61460;41.158;-73.238;2023-04-10T12:53:05;258;245;
73246;PMS5003;61460;41.158;-73.238;2023-04-10T12:55:35;263;252;
73246;PMS5003;61460;41.158;-73.238;2023-04-10T13:00:35;281;254;
73246;PMS5003;61460;41.158;-73.238;2023-04-10T13:03:06;275;256;
73246;PMS5003;61460;41.158;-73.238;2023-04-10T13:05:36;271;249;
73246;PMS5003;61460;41.158;-73.238;2023-04-10T13:08:07;282;260;
73246;PMS5003;61460;41.158;-73.238;2023-04-10T13:10:38;255;236;
73246;PMS5003;61460;41.158;-73.238;2023-04-10T13:13:08;268;242;
73246;PMS5003;61460;41.158;-73.238;2023-04-10T13:15:39;254;235;
73246;PMS5003;61460;41.158;-73.238;2023-04-10T13:18:09;240;223;
73246;PMS5003;61460;41.158;-73.238;2023-04-10T13:20:40;249;228;
73246;PMS5003;61460;41.158;-73.238;2023-04-10T13:23:09;242;220;
73246;PMS5003;61460;41.158;-73.238;2023-04-10T13:25:40;250;225;
73246;PMS5003;61460;41.158;-73.238;2023-04-10T13:28:10;225;217;
73246;PMS5003;61460;41.158;-73.238;2023-04-10T13:30:41;223;210;
73246;PMS5003;61460;41.158;-73.238;2023-04-10T13:33:11;233;221;
73246;PMS5003;61460;41.158;-73.238;2023-04-10T13:35:42;241;220;
73246;PMS5003;61460;41.158;-73.238;2023-04-10T13:38:12;245;210;
73246;PMS5003;61460;41.158;-73.238;2023-04-10T13:40:43;216;204;
73246;PMS5003;61460;41.158;-73.238;2023-04-10T13:43:13;218;197;
73246;PMS5003;61460;41.158;-73.238;2023-04-10T13:45:44;210;203;
73246;PMS5003;61460;41.158;-73.238;2023-04-10T13:48:14;205;194;
73246;PMS5003;61460;41.158;-73.238;2023-04-10T13:50:44;207;186;
73246;PMS5003;61460;41.158;-73.238;2023-04-10T13:53:15;190;177;
73246;PMS5003;61460;41.158;-73.238;2023-04-10T13:55:46;183;170;
73246;PMS5003;61460;41.158;-73.238;2023-04-10T13:58:16;159;155;
73246;PMS5003;61460;41.158;-73.238;2023-04-10T14:00:46;114;98;
73246;PMS5003;61460;41.158;-73.238;2023-04-10T14:03:17;129;115;
73246;PMS5003;61460;41.158;-73.238;2023-04-10T14:05:47;139;121;
73246;PMS5003;61460;41.158;-73.238;2023-04-10T14:08:17;119;112;
73246;PMS5003;61460;41.158;-73.238;2023-04-10T14:10:48;128;110;
73246;PMS5003;61460;41.158;-73.238;2023-04-10T14:13:18;114;105;
73246;PMS5003;61460;41.158;-73.238;2023-04-10T14:15:48;109;97;
73246;PMS5003;61460;41.158;-73.238;2023-04-10T14:18:19;104;91;
73246;PMS5003;61460;41.158;-73.238;2023-04-10T14:20:49;103;91;
73246;PMS5003;61460;41.158;-73.238;2023-04-10T14:23:20;107;95;
73246;PMS5003;61460;41.158;-73.238;2023-04-10T14:25:50;102;93;
73246;PMS5003;61460;41.158;-73.238;2023-04-10T14:28:20;106;94;
73246;PMS5003;61460;41.158;-73.238;2023-04-10T14:30:51;92;84;
73246;PMS5003;61460;41.158;-73.238;2023-04-10T14:33:21;93;76;
73246;PMS5003;61460;41.158;-73.238;2023-04-10T14:35:52;79;66;
73246;PMS5003;61460;41.158;-73.238;2023-04-10T14:38:22;72;61;
73246;PMS5003;61460;41.158;-73.238;2023-04-10T14:40:53;73;60;
73246;PMS5003;61460;41.158;-73.238;2023-04-10T14:43:24;63;56;
73246;PMS5003;61460;41.158;-73.238;2023-04-10T14:45:54;62;47;
73246;PMS5003;61460;41.158;-73.238;2023-04-10T14:48:24;56;49;
73246;PMS5003;61460;41.158;-73.238;2023-04-10T14:50:55;55;44;
73246;PMS5003;61460;41.158;-73.238;2023-04-10T14:53:25;36;35;
73246;PMS5003;61460;41.158;-73.238;2023-04-10T14:55:57;41;33;
73246;PMS5003;61460;41.158;-73.238;2023-04-10T14:58:26;31;30;
73246;PMS5003;61460;41.158;-73.238;2023-04-10T15:00:56;45;33;
73246;PMS5003;61460;41.158;-73.238;2023-04-10T15:03:26;32;30;
73246;PMS5003;61460;41.158;-73.238;2023-04-10T15:05:58;28;27;
73246;PMS5003;61460;41.158;-73.238;2023-04-10T15:08:27;31;27;
73246;PMS5003;61460;41.158;-73.238;2023-04-10T15:10:58;28;28;
73246;PMS5003;61460;41.158;-73.238;2023-04-10T15:13:28;28;25;
73246;PMS5003;61460;41.158;-73.238;2023-04-10T15:15:58;22;22;
73246;PMS5003;61460;41.158;-73.238;2023-04-10T15:18:29;21;17;
73246;PMS5003;61460;41.158;-73.238;2023-04-10T15:20:59;16;15;
73246;PMS5003;61460;41.158;-73.238;2023-04-10T15:23:29;19;18;
73246;PMS5003;61460;41.158;-73.238;2023-04-10T15:26:00;15;15;
73246;PMS5003;61460;41.158;-73.238;2023-04-10T15:28:31;19;19;
73246;PMS5003;61460;41.158;-73.238;2023-04-10T15:31:01;24;17;
73246;PMS5003;61460;41.158;-73.238;2023-04-10T15:33:32;27;22;
73246;PMS5003;61460;41.158;-73.238;2023-04-10T15:36:02;22;21;
73246;PMS5003;61460;41.158;-73.238;2023-04-10T15:38:33;27;19;
73246;PMS5003;61460;41.158;-73.238;2023-04-10T15:41:07;30;25;
73246;PMS5003;61460;41.158;-73.238;2023-04-10T15:43:33;32;25;
73246;PMS5003;61460;41.158;-73.238;2023-04-10T15:46:04;27;27;
73246;PMS5003;61460;41.158;-73.238;2023-04-10T15:48:34;34;28;
73246;PMS5003;61460;41.158;-73.238;2023-04-10T15:51:05;43;36;
73246;PMS5003;61460;41.158;-73.238;2023-04-10T15:53:35;45;41;
73246;PMS5003;61460;41.158;-73.238;2023-04-10T15:56:07;53;43;
73246;PMS5003;61460;41.158;-73.238;2023-04-10T15:58:36;48;45;
73246;PMS5003;61460;41.158;-73.238;2023-04-10T16:01:07;59;49;
73246;PMS5003;61460;41.158;-73.238;2023-04-10T16:03:37;44;40;
73246;PMS5003;61460;41.158;-73.238;2023-04-10T16:06:08;47;46;
73246;PMS5003;61460;41.158;-73.238;2023-04-10T16:08:38;47;40;
73246;PMS5003;61460;41.158;-73.238;2023-04-10T16:11:08;46;46;
73246;PMS5003;61460;41.158;-73.238;2023-04-10T16:13:39;49;40;
73246;PMS5003;61460;41.158;-73.238;2023-04-10T16:16:12;59;49;
73246;PMS5003;61460;41.158;-73.238;2023-04-10T16:18:40;52;44;
73246;PMS5003;61460;41.158;-73.238;2023-04-10T16:21:10;59;48;
73246;PMS5003;61460;41.158;-73.238;2023-04-10T16:23:41;49;48;
73246;PMS5003;61460;41.158;-73.238;2023-04-10T16:26:12;56;48;
73246;PMS5003;61460;41.158;-73.238;2023-04-10T16:28:42;49;41;
73246;PMS5003;61460;41.158;-73.238;2023-04-10T16:31:13;35;35;
73246;PMS5003;61460;41.158;-73.238;2023-04-10T16:33:44;53;46;
73246;PMS5003;61460;41.158;-73.238;2023-04-10T16:36:14;42;41;
73246;PMS5003;61460;41.158;-73.238;2023-04-10T16:38:45;55;44;
73246;PMS5003;61460;41.158;-73.238;2023-04-10T16:41:15;41;40;
73246;PMS5003;61460;41.158;-73.238;2023-04-10T16:43:45;45;39;
73246;PMS5003;61460;41.158;-73.238;2023-04-10T16:46:16;51;43;
73246;PMS5003;61460;41.158;-73.238;2023-04-10T16:48:46;52;45;
73246;PMS5003;61460;41.158;-73.238;2023-04-10T16:51:16;48;46;
73246;PMS5003;61460;41.158;-73.238;2023-04-10T16:53:46;47;45;
73246;PMS5003;61460;41.158;-73.238;2023-04-10T16:56:17;56;46;
73246;PMS5003;61460;41.158;-73.238;2023-04-10T16:58:47;58;53;
73246;PMS5003;61460;41.158;-73.238;2023-04-10T17:01:21;60;52;
73246;PMS5003;61460;41.158;-73.238;2023-04-10T17:03:47;61;47;